Time;durP1;ratioP1;P1;durP2;ratioP2;P2;SDS_P1;SDS_P2;PMS_P1;PMS_P2;Temp;Humidity;BMP_temperature;BMP_pressure;BME280_temperature;BME280_humidity;BME280_pressure;Samples;Min_cycle;Max_cycle;Signal;HPM_P1;HPM_P2
2022/03/20 00:00:12;;;;;;;7.38;3.20;;;;;;;9.40;39.08;103292.56;4952367;28;114688;-61
2022/03/20 00:02:42;;;;;;;7.68;3.03;;;;;;;9.36;39.45;103296.06;4955190;28;114901;-61
2022/03/20 00:05:10;;;;;;;5.88;3.05;;;;;;;9.31;39.38;103292.56;4952604;28;124259;-60
2022/03/20 00:07:38;;;;;;;6.75;2.85;;;;;;;9.26;39.24;103289.03;4949648;28;123579;-65
2022/03/20 00:10:06;;;;;;;6.40;3.00;;;;;;;9.22;39.66;103292.56;4953904;28;113671;-60
2022/03/20 00:12:36;;;;;;;8.18;3.70;;;;;;;9.18;39.55;103280.22;4953899;28;114190;-61
2022/03/20 00:15:04;;;;;;;8.82;3.30;;;;;;;9.14;39.57;103277.56;4954662;28;124754;-60
2022/03/20 00:17:33;;;;;;;6.93;3.60;;;;;;;9.10;39.63;103273.19;4957770;28;125371;-60
2022/03/20 00:20:02;;;;;;;6.15;3.40;;;;;;;9.08;39.71;103274.94;4951534;28;114998;-62
2022/03/20 00:22:34;;;;;;;7.43;3.60;;;;;;;9.04;40.06;103262.59;4961018;28;114941;-60
2022/03/20 00:25:03;;;;;;;7.97;3.70;;;;;;;9.02;39.90;103258.19;4956485;28;124241;-60
2022/03/20 00:27:32;;;;;;;7.53;3.72;;;;;;;8.99;39.91;103251.16;4955002;28;124126;-60
2022/03/20 00:30:00;;;;;;;9.13;4.38;;;;;;;8.99;40.24;103243.22;4942352;28;113488;-60
2022/03/20 00:32:28;;;;;;;9.05;4.10;;;;;;;8.98;40.15;103240.56;4960071;28;114746;-60
2022/03/20 00:34:59;;;;;;;7.43;4.15;;;;;;;8.96;40.46;103243.19;4956665;28;123570;-61
2022/03/20 00:37:28;;;;;;;8.25;4.28;;;;;;;8.95;40.63;103241.47;4960407;28;123929;-60
2022/03/20 00:39:55;;;;;;;9.07;5.20;;;;;;;8.93;40.57;103237.94;4955765;28;114109;-60
2022/03/20 00:42:22;;;;;;;9.43;4.55;;;;;;;8.93;40.85;103228.25;4959647;28;113177;-60
2022/03/20 00:44:49;;;;;;;10.98;5.07;;;;;;;8.93;40.74;103227.38;4957551;28;123997;-60
2022/03/20 00:47:17;;;;;;;10.32;5.18;;;;;;;8.94;40.44;103222.06;4966715;28;123096;-61
2022/03/20 00:49:44;;;;;;;11.27;5.55;;;;;;;8.93;40.47;103222.06;4944018;28;114002;-60
2022/03/20 00:52:11;;;;;;;11.80;6.00;;;;;;;8.93;40.51;103216.78;4967693;28;114410;-62
2022/03/20 00:54:38;;;;;;;10.80;5.57;;;;;;;8.92;40.74;103204.44;4965918;28;123891;-60
2022/03/20 00:57:06;;;;;;;13.40;7.25;;;;;;;8.92;40.70;103215.00;4961462;28;123979;-60
2022/03/20 00:59:33;;;;;;;12.25;7.30;;;;;;;8.90;40.65;103201.78;4958449;28;114210;-60
2022/03/20 01:02:00;;;;;;;14.13;7.25;;;;;;;8.90;40.76;103211.50;4956298;28;114115;-60
2022/03/20 01:04:27;;;;;;;13.27;7.10;;;;;;;8.88;40.71;103208.84;4959384;28;124597;-60
2022/03/20 01:07:01;;;;;;;14.50;7.85;;;;;;;8.87;40.60;103206.19;4957003;28;124874;-60
2022/03/20 01:09:29;;;;;;;15.07;7.93;;;;;;;8.85;41.00;103194.75;4961959;28;115525;-60
2022/03/20 01:11:58;;;;;;;15.70;7.78;;;;;;;8.85;40.68;103205.31;4960372;28;116142;-60
2022/03/20 01:14:26;;;;;;;14.57;7.35;;;;;;;8.83;40.66;103204.44;4959503;28;124082;-60
2022/03/20 01:16:54;;;;;;;15.90;8.15;;;;;;;8.81;41.11;103195.63;4958202;28;123799;-60
2022/03/20 01:19:23;;;;;;;14.88;7.75;;;;;;;8.79;40.67;103192.13;4962037;28;114086;-60
2022/03/20 01:21:52;;;;;;;16.13;8.43;;;;;;;8.75;40.68;103186.81;4968191;28;114163;-60
2022/03/20 01:24:19;;;;;;;15.38;8.98;;;;;;;8.72;40.53;103186.84;4967947;28;124054;-62
2022/03/20 01:26:46;;;;;;;19.23;8.88;;;;;;;8.70;40.62;103182.41;4957920;28;123796;-60
2022/03/20 01:29:14;;;;;;;15.80;8.73;;;;;;;8.67;40.67;103178.00;4952276;28;114524;-60
2022/03/20 01:31:41;;;;;;;18.42;9.40;;;;;;;8.66;40.63;103170.97;4959434;28;114925;-60
2022/03/20 01:34:08;;;;;;;16.25;8.63;;;;;;;8.65;40.64;103169.22;4962732;28;123812;-60
2022/03/20 01:36:35;;;;;;;15.18;8.70;;;;;;;8.64;40.62;103162.16;4963163;28;124495;-60
2022/03/20 01:39:02;;;;;;;16.25;8.90;;;;;;;8.63;41.03;103155.13;4958780;28;113997;-60
2022/03/20 01:41:29;;;;;;;15.88;8.90;;;;;;;8.64;40.95;103146.31;4955915;28;113989;-60
2022/03/20 01:44:01;;;;;;;15.57;8.73;;;;;;;8.63;40.83;103144.56;4954848;28;124108;-60
2022/03/20 01:46:31;;;;;;;19.33;9.80;;;;;;;8.63;41.10;103134.00;4957201;28;122836;-60
2022/03/20 01:48:58;;;;;;;16.38;9.30;;;;;;;8.62;41.00;103132.22;4961403;28;114782;-60
2022/03/20 01:54:13;;;;;;;16.17;9.35;;;;;;;8.59;40.73;103116.38;4963219;28;123854;-60
2022/03/20 01:56:49;;;;;;;16.10;8.93;;;;;;;8.57;40.91;103123.44;4965123;28;123750;-60
2022/03/20 01:59:17;;;;;;;16.60;9.43;;;;;;;8.56;41.13;103124.31;4953315;28;115310;-60
2022/03/20 02:01:45;;;;;;;16.90;9.23;;;;;;;8.54;40.87;103120.78;4962182;28;114854;-61
2022/03/20 02:04:16;;;;;;;17.17;9.60;;;;;;;8.53;40.98;103116.38;4960048;28;124735;-60
2022/03/20 02:06:44;;;;;;;17.50;9.43;;;;;;;8.52;40.88;103125.19;4952450;28;124687;-60
2022/03/20 02:09:11;;;;;;;18.33;10.27;;;;;;;8.51;41.01;103115.50;4961301;28;113082;-60
2022/03/20 02:11:40;;;;;;;17.65;9.88;;;;;;;8.50;41.14;103111.09;4960098;28;114911;-61
2022/03/20 02:14:09;;;;;;;18.75;10.27;;;;;;;8.49;41.14;103109.31;4957114;28;124266;-60
2022/03/20 02:16:38;;;;;;;18.85;10.48;;;;;;;8.48;41.30;103102.31;4962320;28;123879;-60
2022/03/20 02:19:08;;;;;;;16.58;9.73;;;;;;;8.46;41.06;103098.78;4952179;28;114438;-59
2022/03/20 02:21:40;;;;;;;20.00;10.80;;;;;;;8.43;41.24;103094.38;4956434;28;113805;-60
2022/03/20 02:24:41;;;;;;;18.50;10.65;;;;;;;8.39;41.13;103088.16;4953325;28;124696;-60
2022/03/20 02:27:17;;;;;;;22.65;11.75;;;;;;;8.38;40.94;103091.69;4944885;28;122817;-60
2022/03/20 02:29:48;;;;;;;19.50;11.32;;;;;;;8.35;41.03;103083.78;4954582;28;114840;-60
2022/03/20 02:32:18;;;;;;;20.98;11.43;;;;;;;8.33;41.29;103082.88;4953995;28;114375;-60
2022/03/20 02:34:48;;;;;;;21.23;11.20;;;;;;;8.31;41.47;103079.38;4956526;28;124237;-60
2022/03/20 02:37:19;;;;;;;21.38;11.15;;;;;;;8.30;41.55;103074.09;4956768;28;125048;-60
2022/03/20 02:39:47;;;;;;;23.65;11.80;;;;;;;8.28;41.06;103071.44;4960219;28;114149;-60
2022/03/20 02:42:18;;;;;;;20.23;11.55;;;;;;;8.27;41.54;103068.78;4952230;28;114115;-60
2022/03/20 02:45:03;;;;;;;19.98;11.40;;;;;;;8.25;41.59;103060.00;4955344;28;124108;-60
2022/03/20 02:47:40;;;;;;;21.77;11.60;;;;;;;8.22;41.25;103062.66;4957349;28;124173;-60
2022/03/20 02:50:13;;;;;;;21.17;11.25;;;;;;;8.19;41.15;103063.50;4955338;28;115791;-60
2022/03/20 02:52:52;;;;;;;21.45;11.43;;;;;;;8.16;41.55;103042.41;4958746;28;114819;-60
2022/03/20 02:55:23;;;;;;;22.77;12.25;;;;;;;8.13;41.54;103047.69;4958930;28;123889;-60
2022/03/20 02:57:53;;;;;;;22.55;11.63;;;;;;;8.11;41.56;103044.16;4948073;28;124375;-60
2022/03/20 03:00:26;;;;;;;22.85;12.73;;;;;;;8.08;41.38;103044.16;4950800;28;114184;-60
2022/03/20 03:02:56;;;;;;;22.83;11.75;;;;;;;8.07;41.55;103045.03;4958459;28;114194;-60
2022/03/20 03:05:26;;;;;;;21.08;10.60;;;;;;;8.04;41.21;103037.09;4957787;28;124142;-60
2022/03/20 03:10:56;;;;;;;19.08;10.63;;;;;;;7.95;41.11;103033.59;4958230;28;114250;-60
2022/03/20 03:13:31;;;;;;;19.45;11.07;;;;;;;7.90;41.25;103030.06;4963040;28;114088;-60
2022/03/20 03:16:01;;;;;;;18.70;10.13;;;;;;;7.84;41.52;103035.34;4950676;28;124232;-60
2022/03/20 03:18:29;;;;;;;20.58;11.05;;;;;;;7.79;41.31;103023.88;4953684;28;125323;-60
2022/03/20 03:20:57;;;;;;;21.90;11.82;;;;;;;7.72;41.48;103025.66;4957813;28;113976;-60
2022/03/20 03:23:24;;;;;;;25.55;12.32;;;;;;;7.66;41.57;103019.47;4960109;28;113396;-59
2022/03/20 03:25:53;;;;;;;22.15;11.88;;;;;;;7.62;41.61;103018.56;4953379;28;123911;-60
2022/03/20 03:28:21;;;;;;;25.98;11.98;;;;;;;7.55;41.58;103017.69;4948069;28;123786;-60
2022/03/20 03:30:50;;;;;;;23.40;12.38;;;;;;;7.51;42.07;103015.03;4958390;28;113643;-61
2022/03/20 03:33:19;;;;;;;26.17;12.23;;;;;;;7.46;41.75;103012.41;4961154;28;114436;-58
2022/03/20 03:35:53;;;;;;;24.13;12.52;;;;;;;7.43;41.81;103007.09;4963677;28;123846;-58
2022/03/20 03:38:26;;;;;;;23.37;12.63;;;;;;;7.40;42.04;103001.81;4954512;28;123914;-58
2022/03/20 03:40:57;;;;;;;21.23;12.18;;;;;;;7.39;41.96;103005.34;4952784;28;115280;-59
2022/03/20 03:43:24;;;;;;;22.00;12.18;;;;;;;7.37;42.26;102993.91;4956062;28;115393;-59
2022/03/20 03:45:56;;;;;;;26.38;13.13;;;;;;;7.35;42.11;102987.75;4956612;28;124528;-59
2022/03/20 03:48:23;;;;;;;23.73;13.20;;;;;;;7.33;42.14;102989.50;4952660;28;123879;-59
2022/03/20 03:50:53;;;;;;;22.35;11.95;;;;;;;7.33;42.55;102989.50;4955769;28;114074;-59
2022/03/20 03:53:20;;;;;;;25.23;12.45;;;;;;;7.31;42.37;102970.16;4952448;28;113460;-59
2022/03/20 03:55:47;;;;;;;22.30;12.65;;;;;;;7.31;42.17;102980.69;4954097;28;124471;-59
2022/03/20 03:58:15;;;;;;;23.60;12.57;;;;;;;7.27;42.25;102973.66;4953139;28;123550;-59
2022/03/20 04:00:43;;;;;;;28.35;12.40;;;;;;;7.27;42.30;102971.03;4956225;28;113933;-60
2022/03/20 04:03:12;;;;;;;23.58;12.30;;;;;;;7.25;42.56;102970.13;4954065;28;114387;-59
2022/03/20 04:05:40;;;;;;;24.20;12.73;;;;;;;7.24;42.49;102973.66;4956655;28;123555;-60
2022/03/20 04:08:09;;;;;;;23.65;11.60;;;;;;;7.22;42.48;102971.88;4962733;28;123873;-60
2022/03/20 04:10:36;;;;;;;21.92;11.95;;;;;;;7.20;42.45;102973.63;4962547;28;114783;-59
2022/03/20 04:13:04;;;;;;;20.77;11.35;;;;;;;7.19;42.50;102961.31;4963704;28;113950;-59
2022/03/20 04:15:32;;;;;;;23.70;12.18;;;;;;;7.18;42.92;102949.03;4961342;28;124602;-60
2022/03/20 04:18:01;;;;;;;22.88;12.45;;;;;;;7.18;42.92;102949.03;4968790;28;124818;-60
2022/03/20 04:20:29;;;;;;;23.60;12.10;;;;;;;7.18;42.83;102935.88;4955809;28;114442;-60
2022/03/20 04:25:42;;;;;;;22.42;11.98;;;;;;;7.18;42.89;102933.22;4959858;28;122980;-60
2022/03/20 04:28:10;;;;;;;21.85;11.77;;;;;;;7.19;43.05;102929.69;4955559;28;123712;-59
2022/03/20 04:30:37;;;;;;;20.95;11.45;;;;;;;7.22;42.87;102908.63;4967222;28;115220;-59
2022/03/20 04:33:04;;;;;;;23.02;11.38;;;;;;;7.24;42.74;102899.88;4962667;28;113967;-59
2022/03/20 04:35:32;;;;;;;22.50;12.40;;;;;;;7.26;42.67;102900.75;4955199;28;124526;-59
2022/03/20 04:38:02;;;;;;;22.60;11.90;;;;;;;7.28;42.54;102896.34;4956473;28;125725;-59
2022/03/20 04:40:30;;;;;;;21.92;12.05;;;;;;;7.31;42.88;102904.25;4958745;28;114758;-60
2022/03/20 04:42:57;;;;;;;20.33;11.60;;;;;;;7.33;42.59;102905.16;4954439;28;113790;-59
2022/03/20 04:45:26;;;;;;;21.50;11.93;;;;;;;7.34;42.62;102906.91;4953212;28;124322;-59
2022/03/20 04:58:57;;;;;;;21.73;11.57;;;;;;;7.49;42.79;102911.31;4960911;28;123930;-60
2022/03/20 05:01:24;;;;;;;23.85;12.07;;;;;;;7.53;42.75;102903.41;4958788;28;114792;-60
2022/03/20 05:03:52;;;;;;;21.23;11.23;;;;;;;7.59;42.60;102887.59;4958977;28;113898;-60
2022/03/20 05:06:19;;;;;;;22.55;11.95;;;;;;;7.65;42.42;102891.09;4958883;28;124098;-60
2022/03/20 05:08:47;;;;;;;20.00;11.32;;;;;;;7.71;42.41;102880.56;4957087;28;123885;-59
2022/03/20 05:14:00;;;;;;;24.02;12.00;;;;;;;7.84;42.22;102874.41;4957980;28;114069;-59
2022/03/20 05:16:27;;;;;;;20.08;11.15;;;;;;;7.89;42.30;102863.84;4952892;28;124368;-60
2022/03/20 05:18:54;;;;;;;18.50;10.05;;;;;;;7.94;41.87;102857.69;4956450;28;123980;-60
2022/03/20 05:21:22;;;;;;;19.27;10.95;;;;;;;7.98;41.80;102859.41;4951363;28;115229;-60
2022/03/20 05:23:56;;;;;;;20.90;10.88;;;;;;;8.03;41.76;102858.56;4960255;28;114753;-59
2022/03/20 05:26:23;;;;;;;19.80;10.90;;;;;;;8.05;41.36;102868.22;4954750;28;124651;-59
2022/03/20 05:28:50;;;;;;;20.15;11.45;;;;;;;8.08;41.16;102864.69;4960579;28;124589;-59
2022/03/20 05:31:17;;;;;;;22.25;11.65;;;;;;;8.10;41.07;102860.28;4952628;28;114168;-59
2022/03/20 05:33:44;;;;;;;21.38;11.10;;;;;;;8.11;40.95;102854.13;4959730;28;113048;-59
2022/03/20 05:36:11;;;;;;;18.08;11.25;;;;;;;8.11;40.87;102846.22;4954071;28;124335;-60
2022/03/20 05:38:38;;;;;;;19.20;9.90;;;;;;;8.13;40.89;102844.44;4954267;28;124165;-60
2022/03/20 05:43:52;;;;;;;;;;;;;;;8.12;40.75;102845.34;4959738;28;114131;-60
2022/03/20 05:46:20;;;;;;;21.70;10.55;;;;;;;8.11;40.53;102854.13;4964831;28;123439;-59
2022/03/20 05:48:47;;;;;;;18.88;10.55;;;;;;;8.09;40.51;102847.97;4964470;28;124020;-60
2022/03/20 05:51:15;;;;;;;19.83;10.77;;;;;;;8.06;40.37;102845.34;4964792;28;114269;-60
2022/03/20 05:53:44;;;;;;;23.58;10.90;;;;;;;8.03;40.43;102855.91;4963436;28;114604;-60
2022/03/20 05:58:59;;;;;;;18.77;10.48;;;;;;;7.98;40.72;102859.41;4960739;28;124242;-60
2022/03/20 06:01:26;;;;;;;19.05;10.30;;;;;;;7.97;40.23;102847.13;4959812;28;114285;-60
2022/03/20 06:03:53;;;;;;;17.33;10.43;;;;;;;7.96;40.39;102855.91;4958853;28;113951;-60
2022/03/20 06:06:21;;;;;;;19.73;10.77;;;;;;;7.95;40.14;102843.63;4958328;28;124069;-60
2022/03/20 06:08:49;;;;;;;18.90;10.10;;;;;;;7.96;40.34;102855.91;4957372;28;124090;-60
2022/03/20 06:11:16;;;;;;;23.25;11.07;;;;;;;7.95;40.25;102848.03;4962126;28;115669;-59
2022/03/20 06:13:45;;;;;;;18.70;10.65;;;;;;;7.94;40.38;102836.56;4959188;28;115360;-60
2022/03/20 06:16:12;;;;;;;18.92;10.13;;;;;;;7.93;40.03;102832.19;4960671;28;123854;-60
2022/03/20 06:18:42;;;;;;;19.05;11.23;;;;;;;7.94;40.37;102826.00;4963909;28;124243;-60
2022/03/20 06:21:11;;;;;;;22.38;11.43;;;;;;;7.93;39.96;102824.28;4969626;28;114558;-60
2022/03/20 06:23:38;;;;;;;18.98;10.43;;;;;;;7.94;40.28;102833.06;4964941;28;114311;-60
2022/03/20 06:26:08;;;;;;;20.05;11.27;;;;;;;7.92;40.05;102811.94;4962369;28;124078;-60
2022/03/20 06:28:35;;;;;;;19.88;10.23;;;;;;;7.93;39.96;102816.38;4965750;28;123982;-63
2022/03/20 06:31:13;;;;;;;18.90;10.57;;;;;;;7.92;39.78;102806.69;4958778;28;114545;-60
2022/03/20 06:33:56;;;;;;;20.10;10.35;;;;;;;7.93;39.71;102808.44;4956381;28;113960;-60
2022/03/20 06:36:23;;;;;;;20.05;10.68;;;;;;;7.94;39.65;102815.47;4948492;28;124729;-60
2022/03/20 06:38:51;;;;;;;17.15;10.05;;;;;;;7.97;39.89;102819.88;4948492;28;125151;-61
2022/03/20 06:41:18;;;;;;;19.42;10.77;;;;;;;7.98;39.72;102819.84;4951292;28;114632;-61
2022/03/20 06:43:45;;;;;;;21.67;11.18;;;;;;;8.00;39.87;102825.13;4953832;28;114292;-61
2022/03/20 06:46:13;;;;;;;18.67;10.77;;;;;;;8.04;39.78;102832.16;4955159;28;124284;-61
2022/03/20 06:48:54;;;;;;;22.00;10.45;;;;;;;8.09;39.66;102821.59;4955882;28;122711;-61
2022/03/20 06:51:22;;;;;;;18.65;9.98;;;;;;;8.12;39.43;102813.69;4956053;28;114433;-60
2022/03/20 06:53:56;;;;;;;20.83;10.50;;;;;;;8.14;39.33;102804.00;4957570;28;113154;-61
2022/03/20 06:56:23;;;;;;;18.77;10.48;;;;;;;8.16;39.21;102815.41;4952960;28;122857;-61
2022/03/20 06:58:50;;;;;;;18.45;10.55;;;;;;;8.18;39.37;102808.38;4949810;28;123869;-60
2022/03/20 07:01:17;;;;;;;17.75;10.80;;;;;;;8.19;39.30;102795.19;4953165;28;115108;-61
2022/03/20 07:03:45;;;;;;;17.83;9.20;;;;;;;8.22;38.82;102812.75;4959252;28;116060;-62
2022/03/20 07:06:12;;;;;;;21.45;10.13;;;;;;;8.23;38.99;102806.59;4956520;28;122738;-61
2022/03/20 07:08:40;;;;;;;20.85;10.73;;;;;;;8.27;39.33;102808.34;4956527;28;124058;-60
2022/03/20 07:11:07;;;;;;;18.30;10.02;;;;;;;8.29;39.10;102806.56;4952395;28;114821;-61
2022/03/20 07:13:49;;;;;;;18.35;10.02;;;;;;;8.33;38.80;102787.19;4956779;28;113965;-61
2022/03/20 07:16:17;;;;;;;18.20;10.23;;;;;;;8.35;38.88;102780.13;4933494;28;122974;-60
2022/03/20 07:18:45;;;;;;;16.52;9.18;;;;;;;8.38;38.57;102780.13;4951251;28;123992;-62
2022/03/20 07:21:14;;;;;;;21.95;9.98;;;;;;;8.41;38.79;102778.38;4950756;28;113539;-62
2022/03/20 07:23:42;;;;;;;19.20;10.05;;;;;;;8.44;38.91;102778.38;4952388;28;114633;-60
2022/03/20 07:31:41;;;;;;;15.00;9.27;;;;;;;8.58;38.47;102765.97;4949274;28;114571;-60
2022/03/20 07:34:09;;;;;;;19.05;10.15;;;;;;;8.65;38.36;102749.22;4951350;28;114365;-60
2022/03/20 07:36:37;;;;;;;20.75;10.18;;;;;;;8.73;38.29;102747.38;4950516;28;124684;-61
2022/03/20 07:39:04;;;;;;;18.85;9.55;;;;;;;8.83;38.19;102739.41;4949584;28;122808;-61
2022/03/20 07:41:32;;;;;;;17.30;9.63;;;;;;;8.90;38.12;102730.53;4958545;28;114265;-61
2022/03/20 07:43:59;;;;;;;20.83;10.60;;;;;;;8.95;37.62;102728.75;4953855;28;114391;-61
2022/03/20 07:46:26;;;;;;;18.45;10.00;;;;;;;8.98;37.71;102736.63;4950955;28;123735;-60
2022/03/20 07:48:54;;;;;;;18.98;10.20;;;;;;;9.00;37.50;102726.94;4953316;28;124278;-60
2022/03/20 07:51:21;;;;;;;20.00;10.27;;;;;;;9.00;37.54;102729.56;4952736;28;115043;-60
2022/03/20 07:53:50;;;;;;;18.05;10.07;;;;;;;9.01;37.51;102728.69;4953006;28;115363;-60
2022/03/20 07:56:21;;;;;;;18.05;10.30;;;;;;;9.01;37.82;102723.41;4951074;28;123711;-60
2022/03/20 07:58:49;;;;;;;20.27;10.35;;;;;;;9.02;37.59;102725.16;4951511;28;124698;-60
2022/03/20 08:01:16;;;;;;;18.23;9.60;;;;;;;9.03;37.60;102721.63;4952579;28;114878;-60
2022/03/20 08:03:50;;;;;;;17.55;9.85;;;;;;;9.04;37.42;102718.09;4954106;28;114182;-61
2022/03/20 08:06:17;;;;;;;19.92;10.50;;;;;;;9.01;37.49;102704.91;4953706;28;123929;-60
2022/03/20 08:08:45;;;;;;;19.27;10.07;;;;;;;8.99;37.57;102701.41;4954546;28;124051;-60
2022/03/20 08:11:12;;;;;;;15.95;9.85;;;;;;;8.96;37.61;102690.84;4952077;28;114516;-60
2022/03/20 08:13:43;;;;;;;19.02;10.13;;;;;;;8.95;37.42;102682.06;4953882;28;114835;-60
2022/03/20 08:16:16;;;;;;;21.50;10.35;;;;;;;8.96;37.35;102677.63;4951139;28;124041;-60
2022/03/20 08:18:44;;;;;;;18.65;10.05;;;;;;;8.95;37.55;102674.13;4954034;28;123893;-59
2022/03/20 08:21:12;;;;;;;17.45;9.98;;;;;;;8.97;37.28;102674.13;4951218;28;114904;-60
2022/03/20 08:23:40;;;;;;;19.50;10.25;;;;;;;9.00;37.45;102674.06;4953582;28;114355;-60
2022/03/20 08:26:08;;;;;;;19.60;10.68;;;;;;;9.02;37.56;102677.56;4952612;28;124087;-59
2022/03/20 08:28:37;;;;;;;18.23;10.13;;;;;;;9.05;37.46;102677.56;4951762;28;123906;-60
2022/03/20 08:31:06;;;;;;;20.77;10.25;;;;;;;9.09;37.73;102694.25;4953382;28;114011;-60
2022/03/20 08:33:34;;;;;;;20.40;10.20;;;;;;;9.13;37.35;102675.69;4953309;28;113250;-59
2022/03/20 08:36:02;;;;;;;19.85;11.10;;;;;;;9.16;37.53;102683.63;4954403;28;124944;-60
2022/03/20 08:38:29;;;;;;;18.10;10.00;;;;;;;9.19;37.44;102689.75;4951244;28;123740;-60
2022/03/20 08:40:57;;;;;;;19.25;9.90;;;;;;;9.21;37.26;102682.69;4951949;28;115067;-60
2022/03/20 08:43:24;;;;;;;19.27;10.82;;;;;;;9.24;37.48;102677.38;4951876;28;114801;-60
2022/03/20 08:45:51;;;;;;;18.00;9.88;;;;;;;9.27;37.42;102682.66;4953516;28;123951;-61
2022/03/20 08:48:19;;;;;;;21.73;10.00;;;;;;;9.32;37.31;102680.81;4952619;28;123500;-60
2022/03/20 08:50:48;;;;;;;19.15;10.05;;;;;;;9.34;37.59;102663.16;4951559;28;114182;-60
2022/03/20 08:53:19;;;;;;;23.60;11.23;;;;;;;9.40;37.37;102668.41;4952550;28;114280;-60
2022/03/20 08:55:47;;;;;;;19.95;10.68;;;;;;;9.47;37.27;102669.19;4951311;28;125066;-60
2022/03/20 08:58:15;;;;;;;23.83;11.15;;;;;;;9.54;37.61;102674.41;4936499;28;123182;-60
2022/03/20 09:00:46;;;;;;;18.80;10.70;;;;;;;9.65;37.57;102676.06;4950607;28;114239;-61
2022/03/20 09:03:13;;;;;;;20.17;10.85;;;;;;;9.75;37.69;102680.34;4952626;28;114086;-60
2022/03/20 09:05:41;;;;;;;18.77;9.93;;;;;;;9.85;37.44;102667.88;4951548;28;124167;-60
2022/03/20 09:08:08;;;;;;;19.48;10.30;;;;;;;9.96;37.59;102684.50;4950949;28;123766;-60
2022/03/20 09:10:35;;;;;;;21.20;10.73;;;;;;;10.06;37.54;102685.28;4950802;28;114123;-60
2022/03/20 09:13:02;;;;;;;19.52;10.65;;;;;;;10.14;37.09;102684.25;4953558;28;113802;-60
2022/03/20 09:15:31;;;;;;;19.90;11.52;;;;;;;10.24;37.35;102679.69;4950819;28;124935;-60
2022/03/20 09:20:47;;;;;;;19.00;10.90;;;;;;;10.38;36.94;102670.72;4950847;28;113966;-60
2022/03/20 09:23:14;;;;;;;20.30;10.98;;;;;;;10.45;37.12;102667.06;4952778;28;114077;-60
2022/03/20 09:25:42;;;;;;;19.27;10.30;;;;;;;10.58;37.02;102662.47;4950801;28;124652;-60
2022/03/20 09:28:11;;;;;;;20.83;11.52;;;;;;;10.73;36.98;102637.50;4950977;28;123766;-60
2022/03/20 09:30:40;;;;;;;21.40;11.15;;;;;;;10.87;37.14;102632.84;4949769;28;115747;-60
2022/03/20 09:33:11;;;;;;;22.15;11.98;;;;;;;11.03;36.82;102626.34;4936029;28;114565;-61
2022/03/20 09:35:38;;;;;;;21.88;11.55;;;;;;;11.16;36.77;102628.78;4950636;28;124267;-61
2022/03/20 09:38:09;;;;;;;21.95;11.85;;;;;;;11.29;36.61;102620.56;4951704;28;122659;-61
2022/03/20 09:40:37;;;;;;;20.33;11.25;;;;;;;11.42;36.41;102631.81;4951791;28;113874;-61
2022/03/20 09:43:05;;;;;;;21.65;11.85;;;;;;;11.57;36.65;102635.06;4952019;28;113272;-61
2022/03/20 09:45:33;;;;;;;22.80;12.23;;;;;;;11.73;36.32;102619.69;4950682;28;124844;-61
2022/03/20 09:48:04;;;;;;;21.70;11.55;;;;;;;11.84;36.24;102618.53;4950786;28;123835;-61
2022/03/20 09:50:32;;;;;;;21.58;11.48;;;;;;;11.94;36.00;102613.06;4952387;28;114440;-61
2022/03/20 09:53:00;;;;;;;23.48;12.95;;;;;;;11.99;36.00;102600.56;4950035;28;113816;-61
2022/03/20 09:55:28;;;;;;;21.90;12.52;;;;;;;12.02;35.52;102611.13;4951435;28;123149;-61
2022/03/20 09:57:57;;;;;;;22.70;12.60;;;;;;;12.03;35.57;102612.88;4951554;28;124201;-61
2022/03/20 10:00:24;;;;;;;23.17;12.52;;;;;;;12.09;35.86;102610.06;4951364;28;114101;-61
2022/03/20 10:02:51;;;;;;;22.67;11.82;;;;;;;12.16;35.66;102618.78;4952661;28;114040;-61
2022/03/20 10:05:21;;;;;;;23.40;12.63;;;;;;;12.24;35.68;102632.75;4949955;28;124274;-61
2022/03/20 10:07:48;;;;;;;21.60;12.63;;;;;;;12.33;35.53;102621.03;4950437;28;123717;-62
2022/03/20 10:10:22;;;;;;;24.63;12.88;;;;;;;12.44;35.46;102624.31;4948984;28;114238;-62
2022/03/20 10:12:56;;;;;;;22.77;12.20;;;;;;;12.53;35.41;102634.72;4951638;28;113071;-61
2022/03/20 10:15:40;;;;;;;22.73;12.00;;;;;;;12.60;35.15;102636.31;4949972;28;124710;-62
2022/03/20 10:18:09;;;;;;;21.98;12.50;;;;;;;12.60;35.07;102636.31;4949892;28;124218;-62
2022/03/20 10:20:55;;;;;;;24.83;13.48;;;;;;;12.61;35.39;102638.03;4949936;28;115268;-62
2022/03/20 10:23:36;;;;;;;22.05;12.80;;;;;;;12.61;35.04;102632.72;4952994;28;114817;-61
2022/03/20 10:26:08;;;;;;;24.60;13.05;;;;;;;12.61;35.11;102650.47;4952573;28;124557;-61
2022/03/20 10:28:38;;;;;;;21.98;12.75;;;;;;;12.58;35.04;102638.16;4951176;28;123060;-62
2022/03/20 10:31:15;;;;;;;24.33;13.18;;;;;;;12.53;35.10;102650.66;4949517;28;115077;-62
2022/03/20 10:33:43;;;;;;;25.92;13.77;;;;;;;12.49;34.84;102654.31;4951522;28;113018;-62
2022/03/20 10:36:21;;;;;;;23.27;13.18;;;;;;;12.42;35.00;102644.72;4951950;28;124812;-62
2022/03/20 10:38:49;;;;;;;26.42;13.77;;;;;;;12.38;34.97;102643.06;4951574;28;123682;-62
2022/03/20 10:41:26;;;;;;;27.15;14.13;;;;;;;12.34;35.16;102638.69;4949235;28;114223;-62
2022/03/20 10:43:57;;;;;;;26.17;14.73;;;;;;;12.32;35.45;102645.84;4952162;28;114764;-62
2022/03/20 10:46:32;;;;;;;26.42;13.95;;;;;;;12.31;35.66;102633.47;4950221;28;122941;-62
2022/03/20 10:49:00;;;;;;;;;;;;;;;12.26;35.65;102637.13;4949989;28;124279;-63
2022/03/20 10:51:39;;;;;;;25.60;14.75;;;;;;;12.23;36.04;102647.81;4951560;28;114241;-62
2022/03/20 10:54:20;;;;;;;26.17;14.23;;;;;;;12.20;36.09;102642.56;4950939;28;113976;-61
2022/03/20 10:56:53;;;;;;;25.95;15.02;;;;;;;12.18;36.22;102639.06;4949441;28;124304;-62
2022/03/20 10:59:22;;;;;;;27.38;15.10;;;;;;;12.15;36.31;102644.47;4954117;28;97076;-61
2022/03/20 11:01:50;;;;;;;27.95;15.02;;;;;;;12.13;36.54;102640.97;4951679;28;114596;-62
2022/03/20 11:04:21;;;;;;;26.95;15.23;;;;;;;12.12;36.84;102644.53;4952683;28;113786;-62
2022/03/20 11:06:54;;;;;;;30.20;15.93;;;;;;;12.10;36.75;102635.72;4951007;28;124707;-62
2022/03/20 11:09:21;;;;;;;28.63;15.57;;;;;;;12.08;36.88;102638.41;4951241;28;124355;-61
2022/03/20 11:11:58;;;;;;;25.48;14.68;;;;;;;12.05;36.92;102637.59;4948514;28;115523;-61
2022/03/20 11:14:27;;;;;;;28.98;15.75;;;;;;;12.02;37.21;102632.38;4952168;28;115391;-61
2022/03/20 11:17:06;;;;;;;26.48;15.07;;;;;;;11.99;37.40;102635.09;4949185;28;124789;-61
2022/03/20 11:19:35;;;;;;;28.50;15.02;;;;;;;11.97;37.18;102639.56;4949023;28;123610;-61
2022/03/20 11:22:09;;;;;;;31.75;16.60;;;;;;;11.98;37.45;102635.97;4948898;28;114496;-62
2022/03/20 11:24:37;;;;;;;27.92;15.18;;;;;;;12.02;37.31;102645.66;4949170;28;114144;-62
2022/03/20 11:27:05;;;;;;;28.88;15.25;;;;;;;12.03;37.35;102639.41;4960051;28;124187;-60
2022/03/20 11:30:01;;;;;;;27.02;15.00;;;;;;;12.01;37.20;102641.22;4954897;28;123098;-60
2022/03/20 11:32:28;;;;;;;26.95;14.88;;;;;;;12.00;37.43;102639.50;4955724;28;114015;-60
2022/03/20 11:34:56;;;;;;;28.50;15.07;;;;;;;12.02;37.37;102632.38;4971597;28;115347;-60
2022/03/20 11:37:46;;;;;;;28.75;15.30;;;;;;;12.04;37.52;102631.41;4967806;28;124153;-60
2022/03/20 11:40:22;;;;;;;29.65;15.27;;;;;;;12.09;37.26;102628.66;4951587;28;123886;-60
2022/03/20 11:43:16;;;;;;;26.95;14.65;;;;;;;12.11;37.32;102632.16;4951835;28;114092;-60
2022/03/20 11:46:12;;;;;;;26.98;15.40;;;;;;;12.17;37.41;102624.06;4954273;28;114502;-60
2022/03/20 11:48:39;;;;;;;29.07;15.53;;;;;;;12.24;37.52;102627.44;4953522;28;123881;-60
2022/03/20 11:51:06;;;;;;;27.02;14.70;;;;;;;12.30;37.35;102626.41;4960942;28;123553;-60
2022/03/20 11:53:37;;;;;;;27.90;15.07;;;;;;;12.37;37.39;102633.31;4955430;28;114311;-61
2022/03/20 11:56:30;;;;;;;27.55;15.80;;;;;;;12.43;37.43;102619.88;4956413;28;114169;-62